KBLF/BLF METAR and TAF weather

Enter ICAO airport designator
Station Type Date Time Source
KBLF METAR 2018/04/20 08:52 UTC NOAA

KBLF 200852Z AUTO 29006KT 10SM CLR M01/M04 A3027 RMK AO2 SLP266 T10061044 53005


Station Type Date Time Source
KBLF Decoded METAR 2018/04/20 08:52 UTC NOAA

BLUEFIELD MERCER COUNTY AIRPORT , WV, United States (KBLF) 37-18N 081-12W 873M
Apr 20, 2018 - 04:52 AM EDT / 2018.04.20 0852 UTC
Wind: from the WNW (290 degrees) at 7 MPH (6 KT):0
Visibility: 10 mile(s):0
Sky conditions: clear
Temperature: 30.9 F (-0.6 C)
Windchill: 24 F (-4 C):1
Dew Point: 24.1 F (-4.4 C)
Relative Humidity: 75%
Pressure (altimeter): 30.27 in. Hg (1025 hPa)
Pressure tendency: 0.01 inches (0.5 hPa) higher than three hours ago
ob: KBLF 200852Z AUTO 29006KT 10SM CLR M01/M04 A3027 RMK AO2 SLP266 T10061044 53005
cycle: 9

Station Type Date Time Source
KBLF TAF 2018/04/20 06:22 UTC NOAA

TAF KBLF 200520Z 2006/2106 29005KT P6SM SKC
FM201400 33008KT P6SM SKC
FM210100 VRB03KT P6SM SKC


Example: see airport list